sensor_id;sensor_type;location;lat;lon;timestamp;pressure;altitude;pressure_sealevel;temperature;humidity
55679;BME280;41573;51.446;-2.018;2022-09-27T00:01:00;99659.91;;;10.27;100.00
55679;BME280;41573;51.446;-2.018;2022-09-27T00:03:27;99658.59;;;10.33;100.00
55679;BME280;41573;51.446;-2.018;2022-09-27T00:06:09;99667.16;;;10.38;100.00
55679;BME280;41573;51.446;-2.018;2022-09-27T00:08:36;99656.50;;;10.38;100.00
55679;BME280;41573;51.446;-2.018;2022-09-27T00:11:26;99654.69;;;10.39;100.00
55679;BME280;41573;51.446;-2.018;2022-09-27T00:14:02;99650.09;;;10.41;100.00
55679;BME280;41573;51.446;-2.018;2022-09-27T00:16:29;99646.56;;;10.40;100.00
55679;BME280;41573;51.446;-2.018;2022-09-27T00:19:00;99641.06;;;10.43;100.00
55679;BME280;41573;51.446;-2.018;2022-09-27T00:21:27;99651.34;;;10.48;100.00
55679;BME280;41573;51.446;-2.018;2022-09-27T00:23:54;99661.59;;;10.41;100.00
55679;BME280;41573;51.446;-2.018;2022-09-27T00:26:19;99656.28;;;10.41;100.00
55679;BME280;41573;51.446;-2.018;2022-09-27T00:28:44;99657.22;;;10.40;100.00
55679;BME280;41573;51.446;-2.018;2022-09-27T00:31:22;99655.75;;;10.36;100.00
55679;BME280;41573;51.446;-2.018;2022-09-27T00:33:50;99649.72;;;10.34;100.00
55679;BME280;41573;51.446;-2.018;2022-09-27T00:36:16;99657.88;;;10.31;100.00
55679;BME280;41573;51.446;-2.018;2022-09-27T00:38:42;99638.31;;;10.32;100.00
55679;BME280;41573;51.446;-2.018;2022-09-27T00:41:22;99643.63;;;10.32;100.00
55679;BME280;41573;51.446;-2.018;2022-09-27T00:43:53;99645.78;;;10.27;100.00
55679;BME280;41573;51.446;-2.018;2022-09-27T00:49:18;99670.66;;;10.26;100.00
55679;BME280;41573;51.446;-2.018;2022-09-27T00:51:47;99663.88;;;10.22;100.00
55679;BME280;41573;51.446;-2.018;2022-09-27T00:54:14;99658.78;;;10.18;100.00
55679;BME280;41573;51.446;-2.018;2022-09-27T00:56:42;99663.63;;;10.13;100.00
55679;BME280;41573;51.446;-2.018;2022-09-27T00:59:19;99653.50;;;10.06;100.00
55679;BME280;41573;51.446;-2.018;2022-09-27T01:01:48;99657.34;;;10.01;100.00
55679;BME280;41573;51.446;-2.018;2022-09-27T01:04:16;99659.53;;;9.96;100.00
55679;BME280;41573;51.446;-2.018;2022-09-27T01:06:42;99652.06;;;9.89;100.00
55679;BME280;41573;51.446;-2.018;2022-09-27T01:09:09;99654.31;;;9.82;100.00
55679;BME280;41573;51.446;-2.018;2022-09-27T01:12:03;99645.97;;;9.75;100.00
55679;BME280;41573;51.446;-2.018;2022-09-27T01:28:00;99635.69;;;9.45;100.00
55679;BME280;41573;51.446;-2.018;2022-09-27T01:30:40;99634.00;;;9.44;100.00
55679;BME280;41573;51.446;-2.018;2022-09-27T01:38:59;99640.59;;;9.38;100.00
55679;BME280;41573;51.446;-2.018;2022-09-27T01:44:51;99637.28;;;9.35;100.00
55679;BME280;41573;51.446;-2.018;2022-09-27T01:47:25;99636.56;;;9.32;100.00
55679;BME280;41573;51.446;-2.018;2022-09-27T01:49:58;99638.06;;;9.37;100.00
55679;BME280;41573;51.446;-2.018;2022-09-27T01:52:30;99639.13;;;9.34;100.00
55679;BME280;41573;51.446;-2.018;2022-09-27T01:55:00;99635.59;;;9.34;100.00
55679;BME280;41573;51.446;-2.018;2022-09-27T01:57:34;99639.22;;;9.32;100.00
55679;BME280;41573;51.446;-2.018;2022-09-27T02:00:05;99640.91;;;9.34;100.00
55679;BME280;41573;51.446;-2.018;2022-09-27T02:02:35;99633.03;;;9.32;100.00
55679;BME280;41573;51.446;-2.018;2022-09-27T02:05:06;99633.16;;;9.30;100.00
55679;BME280;41573;51.446;-2.018;2022-09-27T02:08:00;99634.97;;;9.30;100.00
55679;BME280;41573;51.446;-2.018;2022-09-27T02:10:38;99628.06;;;9.27;100.00
55679;BME280;41573;51.446;-2.018;2022-09-27T02:16:12;99626.25;;;9.28;100.00
55679;BME280;41573;51.446;-2.018;2022-09-27T02:21:55;99625.63;;;9.24;100.00
55679;BME280;41573;51.446;-2.018;2022-09-27T02:24:31;99623.06;;;9.23;100.00
55679;BME280;41573;51.446;-2.018;2022-09-27T02:27:07;99617.97;;;9.20;100.00
55679;BME280;41573;51.446;-2.018;2022-09-27T02:29:39;99624.03;;;9.22;100.00
55679;BME280;41573;51.446;-2.018;2022-09-27T02:32:07;99617.00;;;9.21;100.00
55679;BME280;41573;51.446;-2.018;2022-09-27T02:34:34;99612.66;;;9.20;100.00
55679;BME280;41573;51.446;-2.018;2022-09-27T02:37:01;99617.88;;;9.21;100.00
55679;BME280;41573;51.446;-2.018;2022-09-27T02:39:27;99616.28;;;9.19;100.00
55679;BME280;41573;51.446;-2.018;2022-09-27T02:41:52;99602.88;;;9.20;100.00
55679;BME280;41573;51.446;-2.018;2022-09-27T02:44:22;99594.81;;;9.22;100.00
55679;BME280;41573;51.446;-2.018;2022-09-27T02:47:18;99596.50;;;9.23;100.00
55679;BME280;41573;51.446;-2.018;2022-09-27T02:50:11;99603.50;;;9.24;100.00
55679;BME280;41573;51.446;-2.018;2022-09-27T03:01:30;99595.84;;;9.32;100.00
55679;BME280;41573;51.446;-2.018;2022-09-27T03:04:03;99593.06;;;9.34;100.00
55679;BME280;41573;51.446;-2.018;2022-09-27T03:06:32;99584.25;;;9.33;100.00
55679;BME280;41573;51.446;-2.018;2022-09-27T03:08:58;99586.59;;;9.38;100.00
55679;BME280;41573;51.446;-2.018;2022-09-27T03:11:24;99574.59;;;9.32;100.00
55679;BME280;41573;51.446;-2.018;2022-09-27T03:13:49;99559.41;;;9.34;100.00
55679;BME280;41573;51.446;-2.018;2022-09-27T03:16:15;99568.22;;;9.35;100.00
55679;BME280;41573;51.446;-2.018;2022-09-27T03:18:41;99573.53;;;9.35;100.00
55679;BME280;41573;51.446;-2.018;2022-09-27T03:21:06;99573.53;;;9.35;100.00
55679;BME280;41573;51.446;-2.018;2022-09-27T03:23:31;99577.78;;;9.37;100.00
55679;BME280;41573;51.446;-2.018;2022-09-27T03:25:57;99576.28;;;9.33;100.00
55679;BME280;41573;51.446;-2.018;2022-09-27T03:28:22;99571.63;;;9.37;100.00
55679;BME280;41573;51.446;-2.018;2022-09-27T03:30:50;99582.13;;;9.38;100.00
55679;BME280;41573;51.446;-2.018;2022-09-27T03:33:16;99575.84;;;9.39;100.00
55679;BME280;41573;51.446;-2.018;2022-09-27T03:38:51;99570.34;;;9.42;100.00
55679;BME280;41573;51.446;-2.018;2022-09-27T03:41:17;99569.34;;;9.43;100.00
55679;BME280;41573;51.446;-2.018;2022-09-27T03:43:42;99561.59;;;9.40;100.00
55679;BME280;41573;51.446;-2.018;2022-09-27T03:46:08;99570.53;;;9.39;100.00
55679;BME280;41573;51.446;-2.018;2022-09-27T03:48:33;99560.13;;;9.36;100.00
55679;BME280;41573;51.446;-2.018;2022-09-27T03:50:58;99556.75;;;9.34;100.00
55679;BME280;41573;51.446;-2.018;2022-09-27T03:53:24;99557.69;;;9.33;100.00
55679;BME280;41573;51.446;-2.018;2022-09-27T03:55:49;99551.13;;;9.26;100.00
55679;BME280;41573;51.446;-2.018;2022-09-27T03:58:15;99551.47;;;9.21;100.00
55679;BME280;41573;51.446;-2.018;2022-09-27T04:00:40;99549.75;;;9.20;100.00
55679;BME280;41573;51.446;-2.018;2022-09-27T04:03:06;99555.28;;;9.17;100.00
55679;BME280;41573;51.446;-2.018;2022-09-27T04:05:32;99547.66;;;9.12;100.00
55679;BME280;41573;51.446;-2.018;2022-09-27T04:07:57;99550.59;;;9.08;100.00
55679;BME280;41573;51.446;-2.018;2022-09-27T04:10:23;99546.34;;;9.05;100.00
55679;BME280;41573;51.446;-2.018;2022-09-27T04:12:49;99550.22;;;9.01;100.00
55679;BME280;41573;51.446;-2.018;2022-09-27T04:15:14;99554.88;;;8.97;100.00
55679;BME280;41573;51.446;-2.018;2022-09-27T04:17:40;99550.84;;;8.92;100.00
55679;BME280;41573;51.446;-2.018;2022-09-27T04:20:07;99550.00;;;8.91;100.00
55679;BME280;41573;51.446;-2.018;2022-09-27T04:22:32;99535.13;;;8.89;100.00
55679;BME280;41573;51.446;-2.018;2022-09-27T04:24:58;99548.75;;;8.84;100.00
55679;BME280;41573;51.446;-2.018;2022-09-27T04:27:23;99542.06;;;8.78;100.00
55679;BME280;41573;51.446;-2.018;2022-09-27T04:29:48;99538.75;;;8.75;100.00
55679;BME280;41573;51.446;-2.018;2022-09-27T04:32:14;99541.50;;;8.73;100.00
55679;BME280;41573;51.446;-2.018;2022-09-27T04:34:39;99534.50;;;8.72;100.00
55679;BME280;41573;51.446;-2.018;2022-09-27T04:37:24;99523.03;;;8.72;100.00
55679;BME280;41573;51.446;-2.018;2022-09-27T04:39:49;99524.84;;;8.71;100.00
55679;BME280;41573;51.446;-2.018;2022-09-27T04:42:31;99513.69;;;8.66;100.00
55679;BME280;41573;51.446;-2.018;2022-09-27T04:44:58;99511.97;;;8.65;100.00
55679;BME280;41573;51.446;-2.018;2022-09-27T04:47:23;99513.69;;;8.66;100.00
55679;BME280;41573;51.446;-2.018;2022-09-27T04:49:48;99512.63;;;8.69;100.00
55679;BME280;41573;51.446;-2.018;2022-09-27T04:52:14;99511.34;;;8.74;100.00
55679;BME280;41573;51.446;-2.018;2022-09-27T04:54:40;99519.00;;;8.79;100.00
55679;BME280;41573;51.446;-2.018;2022-09-27T04:57:05;99513.47;;;8.82;100.00
55679;BME280;41573;51.446;-2.018;2022-09-27T04:59:31;99509.63;;;8.86;100.00
55679;BME280;41573;51.446;-2.018;2022-09-27T05:01:56;99511.97;;;8.91;100.00
55679;BME280;41573;51.446;-2.018;2022-09-27T05:04:24;99516.22;;;8.93;100.00
55679;BME280;41573;51.446;-2.018;2022-09-27T05:06:50;99512.50;;;8.96;100.00
55679;BME280;41573;51.446;-2.018;2022-09-27T05:09:15;99520.34;;;8.97;100.00
55679;BME280;41573;51.446;-2.018;2022-09-27T05:11:41;99515.69;;;9.01;100.00
55679;BME280;41573;51.446;-2.018;2022-09-27T05:14:06;99513.75;;;9.03;100.00
55679;BME280;41573;51.446;-2.018;2022-09-27T05:16:32;99519.59;;;9.08;100.00
55679;BME280;41573;51.446;-2.018;2022-09-27T05:18:58;99515.78;;;9.12;100.00
55679;BME280;41573;51.446;-2.018;2022-09-27T05:21:23;99521.59;;;9.18;100.00
55679;BME280;41573;51.446;-2.018;2022-09-27T05:23:49;99516.94;;;9.21;100.00
55679;BME280;41573;51.446;-2.018;2022-09-27T05:26:14;99525.50;;;9.25;100.00
55679;BME280;41573;51.446;-2.018;2022-09-27T05:28:40;99521.78;;;9.27;100.00
55679;BME280;41573;51.446;-2.018;2022-09-27T05:31:08;99518.91;;;9.30;100.00
55679;BME280;41573;51.446;-2.018;2022-09-27T05:33:34;99512.53;;;9.33;100.00
55679;BME280;41573;51.446;-2.018;2022-09-27T05:36:00;99505.28;;;9.35;100.00
55679;BME280;41573;51.446;-2.018;2022-09-27T05:38:26;99511.22;;;9.39;100.00
55679;BME280;41573;51.446;-2.018;2022-09-27T05:40:51;99508.56;;;9.39;100.00
55679;BME280;41573;51.446;-2.018;2022-09-27T05:43:17;99510.41;;;9.38;100.00
55679;BME280;41573;51.446;-2.018;2022-09-27T05:45:43;99508.69;;;9.37;100.00
55679;BME280;41573;51.446;-2.018;2022-09-27T05:48:09;99503.38;;;9.37;100.00
55679;BME280;41573;51.446;-2.018;2022-09-27T05:50:34;99492.75;;;9.37;100.00
55679;BME280;41573;51.446;-2.018;2022-09-27T05:53:00;99492.75;;;9.37;100.00
55679;BME280;41573;51.446;-2.018;2022-09-27T05:55:26;99495.41;;;9.37;100.00
55679;BME280;41573;51.446;-2.018;2022-09-27T05:58:06;99490.94;;;9.38;100.00
55679;BME280;41573;51.446;-2.018;2022-09-27T06:00:32;99503.38;;;9.37;100.00
55679;BME280;41573;51.446;-2.018;2022-09-27T06:03:02;99501.44;;;9.39;100.00
55679;BME280;41573;51.446;-2.018;2022-09-27T06:05:30;99501.44;;;9.39;100.00
55679;BME280;41573;51.446;-2.018;2022-09-27T06:08:00;99496.13;;;9.39;100.00
55679;BME280;41573;51.446;-2.018;2022-09-27T06:10:27;99502.44;;;9.38;100.00
55679;BME280;41573;51.446;-2.018;2022-09-27T06:12:58;99503.38;;;9.37;100.00
55679;BME280;41573;51.446;-2.018;2022-09-27T06:15:23;99503.38;;;9.37;100.00
55679;BME280;41573;51.446;-2.018;2022-09-27T06:17:49;99506.03;;;9.37;100.00
55679;BME280;41573;51.446;-2.018;2022-09-27T06:20:15;99503.38;;;9.37;100.00
55679;BME280;41573;51.446;-2.018;2022-09-27T06:22:42;99497.09;;;9.38;100.00
55679;BME280;41573;51.446;-2.018;2022-09-27T06:25:08;99508.47;;;9.40;100.00
55679;BME280;41573;51.446;-2.018;2022-09-27T06:27:33;99504.63;;;9.44;100.00
55679;BME280;41573;51.446;-2.018;2022-09-27T06:29:59;99500.03;;;9.46;100.00
55679;BME280;41573;51.446;-2.018;2022-09-27T06:32:24;99497.50;;;9.45;100.00
55679;BME280;41573;51.446;-2.018;2022-09-27T06:34:50;99493.03;;;9.45;100.00
55679;BME280;41573;51.446;-2.018;2022-09-27T06:37:15;99481.44;;;9.46;100.00
55679;BME280;41573;51.446;-2.018;2022-09-27T06:39:40;99491.22;;;9.46;100.00
55679;BME280;41573;51.446;-2.018;2022-09-27T06:42:06;99482.28;;;9.47;100.00
55679;BME280;41573;51.446;-2.018;2022-09-27T06:44:32;99461.88;;;9.47;100.00
55679;BME280;41573;51.446;-2.018;2022-09-27T06:46:57;99468.06;;;9.48;100.00
55679;BME280;41573;51.446;-2.018;2022-09-27T06:49:23;99474.22;;;9.48;100.00
55679;BME280;41573;51.446;-2.018;2022-09-27T06:51:49;99459.34;;;9.46;100.00
55679;BME280;41573;51.446;-2.018;2022-09-27T06:54:16;99472.72;;;9.44;100.00
55679;BME280;41573;51.446;-2.018;2022-09-27T06:56:42;99471.03;;;9.43;100.00
55679;BME280;41573;51.446;-2.018;2022-09-27T06:59:07;99466.34;;;9.47;100.00
55679;BME280;41573;51.446;-2.018;2022-09-27T07:01:51;99461.53;;;9.52;100.00
55679;BME280;41573;51.446;-2.018;2022-09-27T07:04:17;99461.22;;;9.57;100.00
55679;BME280;41573;51.446;-2.018;2022-09-27T07:06:43;99450.94;;;9.63;100.00
55679;BME280;41573;51.446;-2.018;2022-09-27T07:09:08;99453.88;;;9.72;100.00
55679;BME280;41573;51.446;-2.018;2022-09-27T07:11:34;99447.16;;;9.79;100.00
55679;BME280;41573;51.446;-2.018;2022-09-27T07:14:03;99440.41;;;9.86;100.00
55679;BME280;41573;51.446;-2.018;2022-09-27T07:16:29;99446.09;;;9.93;100.00
55679;BME280;41573;51.446;-2.018;2022-09-27T07:18:56;99439.25;;;10.01;100.00
55679;BME280;41573;51.446;-2.018;2022-09-27T07:21:22;99443.88;;;10.11;100.00
55679;BME280;41573;51.446;-2.018;2022-09-27T07:23:48;99443.16;;;10.20;100.00
55679;BME280;41573;51.446;-2.018;2022-09-27T07:26:14;99440.50;;;10.31;100.00
55679;BME280;41573;51.446;-2.018;2022-09-27T07:28:39;99437.06;;;10.42;100.00
55679;BME280;41573;51.446;-2.018;2022-09-27T07:31:06;99432.69;;;10.52;100.00
55679;BME280;41573;51.446;-2.018;2022-09-27T07:33:32;99424.72;;;10.64;100.00
55679;BME280;41573;51.446;-2.018;2022-09-27T07:35:58;99427.13;;;10.78;100.00
55679;BME280;41573;51.446;-2.018;2022-09-27T07:38:24;99426.16;;;10.91;100.00
55679;BME280;41573;51.446;-2.018;2022-09-27T07:40:49;99421.53;;;11.04;100.00
55679;BME280;41573;51.446;-2.018;2022-09-27T07:43:15;99415.59;;;11.12;100.00
55679;BME280;41573;51.446;-2.018;2022-09-27T07:45:40;99410.38;;;11.10;100.00
55679;BME280;41573;51.446;-2.018;2022-09-27T07:48:06;99409.88;;;11.16;100.00
55679;BME280;41573;51.446;-2.018;2022-09-27T07:50:33;99405.50;;;11.15;100.00
55679;BME280;41573;51.446;-2.018;2022-09-27T07:52:59;99402.28;;;11.12;100.00
55679;BME280;41573;51.446;-2.018;2022-09-27T07:55:24;99409.19;;;11.03;100.00
55679;BME280;41573;51.446;-2.018;2022-09-27T07:57:50;99401.69;;;10.97;100.00
55679;BME280;41573;51.446;-2.018;2022-09-27T08:00:17;99412.72;;;10.92;100.00
55679;BME280;41573;51.446;-2.018;2022-09-27T08:02:44;99404.72;;;10.92;100.00
55679;BME280;41573;51.446;-2.018;2022-09-27T08:05:11;99412.09;;;10.89;100.00
55679;BME280;41573;51.446;-2.018;2022-09-27T08:07:37;99419.38;;;10.86;100.00
55679;BME280;41573;51.446;-2.018;2022-09-27T08:10:04;99415.13;;;10.84;100.00
55679;BME280;41573;51.446;-2.018;2022-09-27T08:12:29;99404.63;;;10.82;100.00
55679;BME280;41573;51.446;-2.018;2022-09-27T08:14:55;99400.50;;;10.78;100.00
55679;BME280;41573;51.446;-2.018;2022-09-27T08:17:22;99412.13;;;10.77;100.00
55679;BME280;41573;51.446;-2.018;2022-09-27T08:19:48;99424.00;;;10.73;100.00
55679;BME280;41573;51.446;-2.018;2022-09-27T08:22:14;99426.66;;;10.73;100.00
55679;BME280;41573;51.446;-2.018;2022-09-27T08:24:41;99428.59;;;10.71;100.00
55679;BME280;41573;51.446;-2.018;2022-09-27T08:27:07;99431.50;;;10.68;100.00
55679;BME280;41573;51.446;-2.018;2022-09-27T08:29:33;99430.75;;;10.66;100.00
55679;BME280;41573;51.446;-2.018;2022-09-27T08:31:59;99429.91;;;10.65;100.00
55679;BME280;41573;51.446;-2.018;2022-09-27T08:34:24;99433.41;;;10.66;100.00
55679;BME280;41573;51.446;-2.018;2022-09-27T08:36:52;99433.41;;;10.66;100.00
55679;BME280;41573;51.446;-2.018;2022-09-27T08:39:18;99429.22;;;10.63;100.00
55679;BME280;41573;51.446;-2.018;2022-09-27T08:46:54;99437.66;;;10.57;100.00
55679;BME280;41573;51.446;-2.018;2022-09-27T08:49:30;99439.47;;;10.57;100.00
55679;BME280;41573;51.446;-2.018;2022-09-27T08:51:58;99436.94;;;10.55;100.00
55679;BME280;41573;51.446;-2.018;2022-09-27T08:54:27;99435.63;;;10.49;100.00
55679;BME280;41573;51.446;-2.018;2022-09-27T08:56:58;99452.91;;;10.44;100.00
55679;BME280;41573;51.446;-2.018;2022-09-27T08:59:30;99441.75;;;10.39;100.00
55679;BME280;41573;51.446;-2.018;2022-09-27T09:01:58;99463.28;;;10.35;100.00
55679;BME280;41573;51.446;-2.018;2022-09-27T09:04:34;99461.22;;;10.28;100.00
55679;BME280;41573;51.446;-2.018;2022-09-27T09:07:49;99475.06;;;10.20;100.00
55679;BME280;41573;51.446;-2.018;2022-09-27T09:13:24;99470.22;;;10.14;100.00
55679;BME280;41573;51.446;-2.018;2022-09-27T09:16:13;99475.72;;;10.24;100.00
55679;BME280;41573;51.446;-2.018;2022-09-27T09:24:26;99488.13;;;10.70;100.00
55679;BME280;41573;51.446;-2.018;2022-09-27T09:27:07;99486.47;;;10.92;100.00
55679;BME280;41573;51.446;-2.018;2022-09-27T09:29:47;99497.56;;;11.08;100.00
55679;BME280;41573;51.446;-2.018;2022-09-27T09:32:33;99485.94;;;11.32;100.00
55679;BME280;41573;51.446;-2.018;2022-09-27T09:35:13;99481.25;;;11.56;100.00
55679;BME280;41573;51.446;-2.018;2022-09-27T09:37:44;99484.31;;;11.84;100.00
55679;BME280;41573;51.446;-2.018;2022-09-27T09:40:16;99476.31;;;11.96;100.00
55679;BME280;41573;51.446;-2.018;2022-09-27T09:45:45;99442.81;;;11.92;100.00
55679;BME280;41573;51.446;-2.018;2022-09-27T09:48:29;99416.13;;;11.92;100.00
55679;BME280;41573;51.446;-2.018;2022-09-27T09:50:58;99394.84;;;11.80;100.00
55679;BME280;41573;51.446;-2.018;2022-09-27T09:56:37;99389.50;;;11.80;100.00
55679;BME280;41573;51.446;-2.018;2022-09-27T10:01:45;99375.44;;;11.78;100.00
55679;BME280;41573;51.446;-2.018;2022-09-27T10:04:24;99378.19;;;11.88;100.00
55679;BME280;41573;51.446;-2.018;2022-09-27T10:06:51;99375.16;;;11.93;100.00
55679;BME280;41573;51.446;-2.018;2022-09-27T10:09:21;99378.00;;;12.01;100.00
55679;BME280;41573;51.446;-2.018;2022-09-27T10:11:48;99377.09;;;12.12;100.00
55679;BME280;41573;51.446;-2.018;2022-09-27T10:14:16;99370.00;;;12.22;100.00
55679;BME280;41573;51.446;-2.018;2022-09-27T10:16:45;99366.31;;;12.44;100.00
55679;BME280;41573;51.446;-2.018;2022-09-27T10:19:15;99366.81;;;12.69;100.00
55679;BME280;41573;51.446;-2.018;2022-09-27T10:21:42;99367.16;;;12.95;100.00
55679;BME280;41573;51.446;-2.018;2022-09-27T10:24:12;99357.78;;;13.10;100.00
55679;BME280;41573;51.446;-2.018;2022-09-27T10:26:39;99350.75;;;13.19;100.00
55679;BME280;41573;51.446;-2.018;2022-09-27T10:29:40;99355.66;;;13.24;100.00
55679;BME280;41573;51.446;-2.018;2022-09-27T10:32:01;99350.91;;;13.27;100.00
55679;BME280;41573;51.446;-2.018;2022-09-27T10:34:37;99349.75;;;13.30;100.00
55679;BME280;41573;51.446;-2.018;2022-09-27T10:39:36;99355.72;;;12.64;100.00
55679;BME280;41573;51.446;-2.018;2022-09-27T10:42:19;99336.34;;;12.40;100.00
55679;BME280;41573;51.446;-2.018;2022-09-27T10:44:44;99342.09;;;12.36;100.00
55679;BME280;41573;51.446;-2.018;2022-09-27T10:47:13;99345.00;;;12.54;100.00
55679;BME280;41573;51.446;-2.018;2022-09-27T10:49:43;99340.38;;;12.66;100.00
55679;BME280;41573;51.446;-2.018;2022-09-27T10:52:17;99341.78;;;12.70;100.00
55679;BME280;41573;51.446;-2.018;2022-09-27T10:54:58;99326.66;;;12.90;100.00
55679;BME280;41573;51.446;-2.018;2022-09-27T10:57:26;99324.69;;;13.02;100.00
55679;BME280;41573;51.446;-2.018;2022-09-27T11:00:03;99324.84;;;13.10;100.00
55679;BME280;41573;51.446;-2.018;2022-09-27T11:02:36;99316.13;;;13.08;100.00
55679;BME280;41573;51.446;-2.018;2022-09-27T11:05:28;99316.28;;;13.06;100.00
55679;BME280;41573;51.446;-2.018;2022-09-27T11:08:00;99307.28;;;12.98;100.00
55679;BME280;41573;51.446;-2.018;2022-09-27T11:10:35;99303.84;;;12.86;100.00
55679;BME280;41573;51.446;-2.018;2022-09-27T11:13:11;99313.28;;;12.80;100.00
55679;BME280;41573;51.446;-2.018;2022-09-27T11:15:58;99305.09;;;12.72;100.00
55679;BME280;41573;51.446;-2.018;2022-09-27T11:21:38;99305.44;;;12.48;100.00
55679;BME280;41573;51.446;-2.018;2022-09-27T11:29:52;99302.56;;;12.20;100.00
55679;BME280;41573;51.446;-2.018;2022-09-27T11:44:00;99321.75;;;12.04;100.00
55679;BME280;41573;51.446;-2.018;2022-09-27T11:46:31;99320.69;;;11.95;100.00
55679;BME280;41573;51.446;-2.018;2022-09-27T11:52:07;99325.56;;;11.69;100.00
55679;BME280;41573;51.446;-2.018;2022-09-27T11:54:50;99333.28;;;11.51;100.00
55679;BME280;41573;51.446;-2.018;2022-09-27T12:10:58;99313.84;;;11.39;100.00
55679;BME280;41573;51.446;-2.018;2022-09-27T12:13:32;99314.19;;;11.46;100.00
55679;BME280;41573;51.446;-2.018;2022-09-27T12:15:58;99307.72;;;11.48;100.00
55679;BME280;41573;51.446;-2.018;2022-09-27T12:18:31;99321.53;;;11.53;100.00
55679;BME280;41573;51.446;-2.018;2022-09-27T12:21:02;99321.47;;;11.65;100.00
55679;BME280;41573;51.446;-2.018;2022-09-27T12:26:08;99320.69;;;11.74;100.00
55679;BME280;41573;51.446;-2.018;2022-09-27T12:31:29;99316.66;;;11.80;100.00
55679;BME280;41573;51.446;-2.018;2022-09-27T12:34:02;99308.75;;;11.78;100.00
55679;BME280;41573;51.446;-2.018;2022-09-27T12:36:33;99303.44;;;11.78;100.00
55679;BME280;41573;51.446;-2.018;2022-09-27T12:42:08;99286.72;;;11.76;100.00
55679;BME280;41573;51.446;-2.018;2022-09-27T12:44:39;99277.63;;;11.79;100.00
55679;BME280;41573;51.446;-2.018;2022-09-27T12:52:21;99291.97;;;11.87;100.00
55679;BME280;41573;51.446;-2.018;2022-09-27T13:00:45;99279.81;;;11.73;100.00
55679;BME280;41573;51.446;-2.018;2022-09-27T13:03:29;99279.13;;;11.71;100.00
55679;BME280;41573;51.446;-2.018;2022-09-27T13:08:55;99263.50;;;11.67;100.00
55679;BME280;41573;51.446;-2.018;2022-09-27T13:11:51;99264.31;;;11.58;100.00
55679;BME280;41573;51.446;-2.018;2022-09-27T13:14:25;99254.59;;;11.56;100.00
55679;BME280;41573;51.446;-2.018;2022-09-27T13:16:52;99257.75;;;11.62;100.00
55679;BME280;41573;51.446;-2.018;2022-09-27T13:22:38;99245.88;;;11.76;100.00
55679;BME280;41573;51.446;-2.018;2022-09-27T13:31:00;99228.25;;;12.15;100.00
55679;BME280;41573;51.446;-2.018;2022-09-27T13:49:42;99216.94;;;12.52;100.00
55679;BME280;41573;51.446;-2.018;2022-09-27T13:54:53;99214.53;;;12.39;100.00
55679;BME280;41573;51.446;-2.018;2022-09-27T13:57:42;99210.84;;;12.31;100.00
55679;BME280;41573;51.446;-2.018;2022-09-27T14:00:24;99215.63;;;12.27;100.00
55679;BME280;41573;51.446;-2.018;2022-09-27T14:03:24;99212.50;;;12.22;100.00
55679;BME280;41573;51.446;-2.018;2022-09-27T14:05:54;99221.63;;;12.19;100.00
55679;BME280;41573;51.446;-2.018;2022-09-27T14:08:42;99220.94;;;12.17;100.00
55679;BME280;41573;51.446;-2.018;2022-09-27T14:11:12;99223.47;;;12.19;100.00
55679;BME280;41573;51.446;-2.018;2022-09-27T14:13:38;99219.50;;;12.13;100.00
55679;BME280;41573;51.446;-2.018;2022-09-27T14:16:05;99227.81;;;12.10;100.00
55679;BME280;41573;51.446;-2.018;2022-09-27T14:18:32;99223.66;;;11.96;100.00
55679;BME280;41573;51.446;-2.018;2022-09-27T14:23:43;99218.31;;;11.65;100.00
55679;BME280;41573;51.446;-2.018;2022-09-27T14:26:24;99219.53;;;11.51;100.00
55679;BME280;41573;51.446;-2.018;2022-09-27T14:28:51;99207.69;;;11.44;100.00
55679;BME280;41573;51.446;-2.018;2022-09-27T14:31:21;99209.16;;;11.37;100.00
55679;BME280;41573;51.446;-2.018;2022-09-27T14:33:48;99200.34;;;11.36;100.00
55679;BME280;41573;51.446;-2.018;2022-09-27T14:36:31;99203.31;;;11.43;100.00
55679;BME280;41573;51.446;-2.018;2022-09-27T14:39:21;99190.13;;;11.42;100.00
55679;BME280;41573;51.446;-2.018;2022-09-27T14:41:47;99194.38;;;11.44;100.00
55679;BME280;41573;51.446;-2.018;2022-09-27T14:44:15;99195.75;;;11.48;100.00
55679;BME280;41573;51.446;-2.018;2022-09-27T14:46:41;99194.66;;;11.51;100.00
55679;BME280;41573;51.446;-2.018;2022-09-27T14:49:23;99186.53;;;11.52;100.00
55679;BME280;41573;51.446;-2.018;2022-09-27T14:51:53;99192.59;;;11.54;100.00
55679;BME280;41573;51.446;-2.018;2022-09-27T14:54:27;99192.19;;;11.59;100.00
55679;BME280;41573;51.446;-2.018;2022-09-27T14:56:55;99195.81;;;11.58;100.00
55679;BME280;41573;51.446;-2.018;2022-09-27T14:59:28;99193.41;;;11.55;100.00
55679;BME280;41573;51.446;-2.018;2022-09-27T15:01:58;99186.28;;;11.55;100.00
55679;BME280;41573;51.446;-2.018;2022-09-27T15:04:29;99182.63;;;11.56;100.00
55679;BME280;41573;51.446;-2.018;2022-09-27T15:06:56;99187.69;;;11.60;100.00
55679;BME280;41573;51.446;-2.018;2022-09-27T15:09:23;99181.38;;;11.61;100.00
55679;BME280;41573;51.446;-2.018;2022-09-27T15:11:53;99174.53;;;11.68;100.00
55679;BME280;41573;51.446;-2.018;2022-09-27T15:14:20;99181.00;;;11.75;100.00
55679;BME280;41573;51.446;-2.018;2022-09-27T15:16:50;99187.25;;;11.85;100.00
55679;BME280;41573;51.446;-2.018;2022-09-27T15:19:28;99179.66;;;11.90;100.00
55679;BME280;41573;51.446;-2.018;2022-09-27T15:21:54;99171.03;;;11.98;100.00
55679;BME280;41573;51.446;-2.018;2022-09-27T15:24:44;99173.00;;;12.06;100.00
55679;BME280;41573;51.446;-2.018;2022-09-27T15:27:16;99172.22;;;12.15;100.00
55679;BME280;41573;51.446;-2.018;2022-09-27T15:29:48;99167.56;;;12.17;100.00
55679;BME280;41573;51.446;-2.018;2022-09-27T15:32:16;99169.41;;;12.17;100.00
55679;BME280;41573;51.446;-2.018;2022-09-27T15:34:43;99180.06;;;12.17;100.00
55679;BME280;41573;51.446;-2.018;2022-09-27T15:37:26;99175.72;;;12.16;100.00
55679;BME280;41573;51.446;-2.018;2022-09-27T15:39:51;99177.78;;;12.12;100.00